Time;durP1;ratioP1;P1;durP2;ratioP2;P2;SDS_P1;SDS_P2;PMS_P1;PMS_P2;Temp;Humidity;BMP_temperature;BMP_pressure;BME280_temperature;BME280_humidity;BME280_pressure;Samples;Min_cycle;Max_cycle;Signal;HPM_P1;HPM_P2
2023/03/15 00:00:54;;;;;;;10.07;2.08;;;;;;;-144.87;100.00;61487.56;4977672;28;20030;-82
2023/03/15 00:03:23;;;;;;;5.70;2.03;;;;;;;-144.87;100.00;61487.56;4996931;28;20233;-82
2023/03/15 00:05:51;;;;;;;12.32;2.33;;;;;;;-144.87;100.00;61487.56;4961243;28;20092;-82
2023/03/15 00:08:18;;;;;;;6.50;2.05;;;;;;;-144.87;100.00;61487.56;4974793;28;20115;-82
2023/03/15 00:10:46;;;;;;;7.15;1.90;;;;;;;-144.87;100.00;61487.56;4971208;28;20026;-81
2023/03/15 00:13:14;;;;;;;11.25;2.50;;;;;;;-144.87;100.00;61487.56;4971456;28;20045;-82
2023/03/15 00:15:48;;;;;;;5.03;2.25;;;;;;;-144.87;100.00;61487.56;4971506;28;20030;-81
2023/03/15 00:18:16;;;;;;;11.13;2.65;;;;;;;-144.87;100.00;61487.56;4971554;28;20069;-81
2023/03/15 00:20:43;;;;;;;5.93;2.40;;;;;;;-144.87;100.00;61487.56;4969908;28;20042;-81
2023/03/15 00:23:09;;;;;;;11.20;2.55;;;;;;;-144.87;100.00;61487.56;4958384;28;20033;-82
2023/03/15 00:25:36;;;;;;;8.23;2.42;;;;;;;-144.87;100.00;61487.56;4958228;28;20053;-81
2023/03/15 00:28:03;;;;;;;11.52;2.70;;;;;;;-144.87;100.00;61487.56;4974769;28;20120;-80
2023/03/15 00:30:31;;;;;;;8.18;2.22;;;;;;;-144.87;100.00;61487.56;4995013;28;20506;-80
2023/03/15 00:32:58;;;;;;;10.65;2.78;;;;;;;-144.87;100.00;61487.56;4965047;28;20056;-80
2023/03/15 00:35:24;;;;;;;20.70;3.97;;;;;;;-144.87;100.00;61487.56;4995037;28;20500;-81
2023/03/15 00:37:55;;;;;;;21.67;4.82;;;;;;;-144.87;100.00;61487.56;4971379;28;20065;-80
2023/03/15 00:40:22;;;;;;;9.30;2.17;;;;;;;-144.87;100.00;61487.56;4992454;28;20041;-80
2023/03/15 00:42:49;;;;;;;14.82;2.88;;;;;;;-144.87;100.00;61487.56;4957909;28;20034;-80
2023/03/15 00:45:17;;;;;;;13.98;2.95;;;;;;;-144.87;100.00;61487.56;4957060;28;20049;-80
2023/03/15 00:47:54;;;;;;;12.45;3.47;;;;;;;-144.87;100.00;61487.56;4985878;28;20034;-80
2023/03/15 00:50:22;;;;;;;14.27;2.85;;;;;;;-144.87;100.00;61487.56;4989276;28;20030;-80
2023/03/15 00:52:48;;;;;;;6.75;2.88;;;;;;;-144.87;100.00;61487.56;4997190;28;20113;-80
2023/03/15 00:55:17;;;;;;;8.63;2.97;;;;;;;-144.87;100.00;61487.56;4965915;28;20027;-80
2023/03/15 00:57:45;;;;;;;19.52;3.88;;;;;;;-144.87;100.00;61487.56;4994905;28;20043;-80
2023/03/15 01:00:14;;;;;;;11.73;3.55;;;;;;;-144.87;100.00;61487.56;4971095;28;20044;-81
2023/03/15 01:02:41;;;;;;;19.42;3.63;;;;;;;-144.87;100.00;61487.56;4983032;28;20029;-81
2023/03/15 01:05:08;;;;;;;5.65;3.03;;;;;;;-144.87;100.00;61487.56;4973298;28;20038;-80
2023/03/15 01:07:35;;;;;;;10.25;3.30;;;;;;;-144.87;100.00;61487.56;4956098;28;20507;-81
2023/03/15 01:10:02;;;;;;;20.23;4.65;;;;;;;-144.87;100.00;61487.56;4953667;28;20037;-81
2023/03/15 01:12:31;;;;;;;11.77;3.05;;;;;;;-144.87;100.00;61487.56;4938890;28;20041;-80
2023/03/15 01:14:58;;;;;;;21.45;3.72;;;;;;;-144.87;100.00;61487.56;4956288;28;20173;-80
2023/03/15 01:17:25;;;;;;;15.63;3.60;;;;;;;-144.87;100.00;61487.56;4985452;28;20045;-80
2023/03/15 01:19:52;;;;;;;16.88;4.10;;;;;;;-144.87;100.00;61487.56;4954813;28;20052;-80
2023/03/15 01:22:19;;;;;;;14.18;3.80;;;;;;;-144.87;100.00;61487.56;4966873;28;20492;-81
2023/03/15 01:24:45;;;;;;;17.35;3.08;;;;;;;-144.87;100.00;61487.56;4973180;28;20041;-81
2023/03/15 01:27:12;;;;;;;8.82;2.72;;;;;;;-144.87;100.00;61487.56;4975429;28;20107;-83
2023/03/15 01:29:38;;;;;;;19.80;4.68;;;;;;;-144.87;100.00;61487.56;4986396;28;20069;-82
2023/03/15 01:32:06;;;;;;;12.88;3.50;;;;;;;-144.87;100.00;61487.56;4970604;28;20046;-82
2023/03/15 01:34:33;;;;;;;9.88;2.70;;;;;;;-144.87;100.00;61487.56;4958997;28;20448;-82
2023/03/15 01:37:01;;;;;;;12.05;3.30;;;;;;;-144.87;100.00;61487.56;4974970;28;20125;-82
2023/03/15 01:39:32;;;;;;;13.27;4.00;;;;;;;-144.87;100.00;61487.56;4989866;28;20484;-81
2023/03/15 01:41:59;;;;;;;7.07;2.88;;;;;;;-144.87;100.00;61487.56;4974934;28;20507;-81
2023/03/15 01:44:53;;;;;;;12.75;3.42;;;;;;;-144.87;100.00;61487.56;4973972;28;20070;-81
2023/03/15 01:47:19;;;;;;;8.82;2.80;;;;;;;-144.87;100.00;61487.56;4960052;28;20403;-81
2023/03/15 01:49:50;;;;;;;10.05;2.83;;;;;;;-144.87;100.00;61487.56;5000728;28;20045;-81
2023/03/15 01:52:29;;;;;;;9.75;2.70;;;;;;;-144.87;100.00;61487.56;4995887;28;20037;-81
2023/03/15 01:55:09;;;;;;;11.25;2.80;;;;;;;-144.87;100.00;61487.56;4977786;28;20038;-80
2023/03/15 01:57:45;;;;;;;7.18;2.78;;;;;;;-144.87;100.00;61487.56;4956678;28;20099;-80
2023/03/15 02:00:14;;;;;;;10.70;2.97;;;;;;;-144.87;100.00;61487.56;4955160;28;20266;-80
2023/03/15 02:02:57;;;;;;;14.32;3.00;;;;;;;-144.87;100.00;61487.56;4974588;28;20128;-80
2023/03/15 02:05:38;;;;;;;6.47;3.10;;;;;;;-144.87;100.00;61487.56;4968832;28;20097;-80
2023/03/15 02:08:07;;;;;;;9.20;2.83;;;;;;;-144.87;100.00;61487.56;4961571;28;20399;-80
2023/03/15 02:10:57;;;;;;;8.80;2.60;;;;;;;-144.87;100.00;61487.56;4957375;28;20093;-79
2023/03/15 02:13:25;;;;;;;7.15;2.60;;;;;;;-144.87;100.00;61487.56;4957400;28;20136;-80
2023/03/15 02:15:54;;;;;;;12.40;2.65;;;;;;;-144.87;100.00;61487.56;4953009;28;20029;-80
2023/03/15 02:18:26;;;;;;;11.73;2.92;;;;;;;-144.87;100.00;61487.56;4956037;28;20436;-79
2023/03/15 02:21:04;;;;;;;9.95;2.78;;;;;;;-144.87;100.00;61487.56;4966200;28;20050;-79
2023/03/15 02:23:32;;;;;;;10.77;3.25;;;;;;;-144.87;100.00;61487.56;4986356;28;20034;-79
2023/03/15 02:26:17;;;;;;;11.90;3.33;;;;;;;-144.87;100.00;61487.56;4937970;28;20045;-79
2023/03/15 02:28:44;;;;;;;9.52;3.15;;;;;;;-144.87;100.00;61487.56;4990896;28;20061;-80
2023/03/15 02:31:12;;;;;;;9.55;3.40;;;;;;;-144.87;100.00;61487.56;4953820;28;20045;-80
2023/03/15 02:33:50;;;;;;;14.32;3.45;;;;;;;-144.87;100.00;61487.56;5001638;28;20038;-80
2023/03/15 02:36:28;;;;;;;13.45;3.50;;;;;;;-144.87;100.00;61487.56;4945642;28;20050;-80
2023/03/15 02:38:55;;;;;;;13.52;3.38;;;;;;;-144.87;100.00;61487.56;4954219;28;20491;-82
2023/03/15 02:41:25;;;;;;;16.67;3.42;;;;;;;-144.87;100.00;61487.56;4959191;28;20046;-82
2023/03/15 02:43:55;;;;;;;11.52;3.53;;;;;;;-144.87;100.00;61487.56;4971441;28;20034;-81
2023/03/15 02:46:22;;;;;;;14.15;4.57;;;;;;;-144.87;100.00;61487.56;4970313;28;20038;-82
2023/03/15 02:48:52;;;;;;;12.07;4.00;;;;;;;-144.87;100.00;61487.56;4977578;28;20014;-81
2023/03/15 02:51:21;;;;;;;11.93;2.55;;;;;;;-144.87;100.00;61487.56;4975776;28;20050;-81
2023/03/15 02:53:50;;;;;;;24.02;4.18;;;;;;;-144.87;100.00;61487.56;4956085;28;20034;-80
2023/03/15 02:56:16;;;;;;;20.27;4.43;;;;;;;-144.87;100.00;61487.56;4950683;28;20133;-81
2023/03/15 02:58:45;;;;;;;15.63;3.88;;;;;;;-144.87;100.00;61487.56;4967437;28;20100;-80
2023/03/15 03:01:14;;;;;;;25.48;4.22;;;;;;;-144.87;100.00;61487.56;4966071;28;20054;-81
2023/03/15 03:03:44;;;;;;;14.88;4.05;;;;;;;-144.87;100.00;61487.56;4960741;28;20031;-81
2023/03/15 03:06:11;;;;;;;18.67;4.30;;;;;;;-144.87;100.00;61487.56;4970724;28;20042;-81
2023/03/15 03:08:40;;;;;;;13.73;4.15;;;;;;;-144.87;100.00;61487.56;4992678;28;20039;-81
2023/03/15 03:11:07;;;;;;;16.60;3.70;;;;;;;-144.87;100.00;61487.56;4991640;28;20054;-80
2023/03/15 03:13:35;;;;;;;18.83;3.90;;;;;;;-144.87;100.00;61487.56;4988443;28;20026;-80
2023/03/15 03:16:04;;;;;;;17.63;4.65;;;;;;;-144.87;100.00;61487.56;4955071;28;20046;-80
2023/03/15 03:18:34;;;;;;;21.33;4.18;;;;;;;-144.87;100.00;61487.56;4970271;28;20046;-80
2023/03/15 03:21:05;;;;;;;14.60;3.90;;;;;;;-144.87;100.00;61487.56;4995385;28;20041;-80
2023/03/15 03:23:33;;;;;;;12.90;3.92;;;;;;;-144.87;100.00;61487.56;4956455;28;20121;-80
2023/03/15 03:26:00;;;;;;;10.38;3.50;;;;;;;-144.87;100.00;61487.56;4971160;28;20475;-80
2023/03/15 03:28:28;;;;;;;12.70;4.30;;;;;;;-144.87;100.00;61487.56;4984759;28;20026;-79
2023/03/15 03:30:55;;;;;;;13.60;4.03;;;;;;;-144.87;100.00;61487.56;4964306;28;20392;-79
2023/03/15 03:33:22;;;;;;;19.02;4.60;;;;;;;-144.87;100.00;61487.56;4956802;28;20030;-79
2023/03/15 03:35:50;;;;;;;13.57;4.38;;;;;;;-144.87;100.00;61487.56;4952834;28;20535;-80
2023/03/15 03:38:17;;;;;;;16.27;4.28;;;;;;;-144.87;100.00;61487.56;4986981;28;20034;-79
2023/03/15 03:40:49;;;;;;;15.57;4.18;;;;;;;-144.87;100.00;61487.56;4954549;28;20034;-80
2023/03/15 03:43:16;;;;;;;22.33;4.40;;;;;;;-144.87;100.00;61487.56;4951632;28;20049;-80
2023/03/15 03:45:43;;;;;;;14.10;4.43;;;;;;;-144.87;100.00;61487.56;4974293;28;20511;-81
2023/03/15 03:48:10;;;;;;;19.27;5.00;;;;;;;-144.87;100.00;61487.56;4973371;28;20383;-80
2023/03/15 03:50:37;;;;;;;15.27;5.13;;;;;;;-144.87;100.00;61487.56;4972821;28;20293;-81
2023/03/15 03:53:03;;;;;;;14.82;5.38;;;;;;;-144.87;100.00;61487.56;4968363;28;20050;-80
2023/03/15 03:55:33;;;;;;;15.65;4.45;;;;;;;-144.87;100.00;61487.56;4990869;28;20038;-80
2023/03/15 03:58:00;;;;;;;17.25;4.50;;;;;;;-144.87;100.00;61487.56;4954560;28;20038;-81
2023/03/15 04:00:43;;;;;;;10.18;4.25;;;;;;;-144.87;100.00;61487.56;4987108;28;20031;-81
2023/03/15 04:03:10;;;;;;;14.65;4.47;;;;;;;-144.87;100.00;61487.56;5001544;28;20061;-80
2023/03/15 04:05:40;;;;;;;17.27;4.72;;;;;;;-144.87;100.00;61487.56;5002781;28;20038;-80
2023/03/15 04:08:07;;;;;;;15.25;4.18;;;;;;;-144.87;100.00;61487.56;4957757;28;20495;-81
2023/03/15 04:10:37;;;;;;;;;;;;;;;-144.87;100.00;61487.56;4975681;28;20037;-81
2023/03/15 04:13:04;;;;;;;15.77;3.80;;;;;;;-144.87;100.00;61487.56;5004108;28;19918;-81
2023/03/15 04:15:30;;;;;;;12.43;4.63;;;;;;;-144.87;100.00;61487.56;4956611;28;20353;-80
2023/03/15 04:17:58;;;;;;;16.98;4.45;;;;;;;-144.87;100.00;61487.56;4960789;28;20040;-80
2023/03/15 04:20:33;;;;;;;37.65;5.57;;;;;;;-144.87;100.00;61487.56;4939969;28;20129;-80
2023/03/15 04:23:00;;;;;;;15.73;4.57;;;;;;;-144.87;100.00;61487.56;4981046;28;20034;-80
2023/03/15 04:25:37;;;;;;;38.53;5.82;;;;;;;-144.87;100.00;61487.56;4963162;28;20041;-80
2023/03/15 04:28:16;;;;;;;16.60;4.07;;;;;;;-144.87;100.00;61487.56;4997951;28;20087;-81
2023/03/15 04:30:50;;;;;;;18.05;6.07;;;;;;;-144.87;100.00;61487.56;4973941;28;20140;-81
2023/03/15 04:33:35;;;;;;;16.50;4.43;;;;;;;-144.87;100.00;61487.56;4975037;28;20081;-81
2023/03/15 04:36:21;;;;;;;15.57;4.53;;;;;;;-144.87;100.00;61487.56;4966070;28;20095;-81
2023/03/15 04:39:07;;;;;;;14.20;4.78;;;;;;;-144.87;100.00;61487.56;5002961;28;20184;-80
2023/03/15 04:41:46;;;;;;;15.05;4.72;;;;;;;-144.87;100.00;61487.56;4967553;28;20513;-81
2023/03/15 04:44:33;;;;;;;16.48;4.50;;;;;;;-144.87;100.00;61487.56;4992205;28;20038;-80
2023/03/15 04:47:11;;;;;;;22.13;5.30;;;;;;;-144.87;100.00;61487.56;4998069;28;20090;-80
2023/03/15 04:49:57;;;;;;;17.90;4.75;;;;;;;-144.87;100.00;61487.56;4982497;28;20037;-81
2023/03/15 04:52:52;;;;;;;19.48;4.75;;;;;;;-144.87;100.00;61487.56;4966621;28;20042;-79
2023/03/15 04:55:34;;;;;;;20.33;4.45;;;;;;;-144.87;100.00;61487.56;4979970;28;20577;-80
2023/03/15 04:58:22;;;;;;;22.95;4.55;;;;;;;-144.87;100.00;61487.56;4959269;28;20030;-80
2023/03/15 05:01:18;;;;;;;31.63;4.78;;;;;;;-144.87;100.00;61487.56;4975036;28;20048;-81
2023/03/15 05:03:45;;;;;;;14.70;4.43;;;;;;;-144.87;100.00;61487.56;4967624;28;20116;-80
2023/03/15 05:06:43;;;;;;;21.80;5.03;;;;;;;-144.87;100.00;61487.56;4983816;28;20046;-80
2023/03/15 05:09:27;;;;;;;22.65;3.97;;;;;;;-144.87;100.00;61487.56;4984203;28;20518;-81
2023/03/15 05:12:12;;;;;;;24.73;4.47;;;;;;;-144.87;100.00;61487.56;4988775;28;20065;-81
2023/03/15 05:14:56;;;;;;;19.85;4.78;;;;;;;-144.87;100.00;61487.56;5002845;28;20049;-81
2023/03/15 05:17:41;;;;;;;21.73;4.50;;;;;;;-144.87;100.00;61487.56;5000431;28;20486;-81
2023/03/15 05:20:20;;;;;;;18.70;4.35;;;;;;;-144.87;100.00;61487.56;4953378;28;20046;-82
2023/03/15 05:22:54;;;;;;;26.23;4.32;;;;;;;-144.87;100.00;61487.56;4988237;28;20042;-81
2023/03/15 05:25:20;;;;;;;21.35;4.53;;;;;;;-144.87;100.00;61487.56;4973220;28;20451;-81
2023/03/15 05:27:58;;;;;;;20.88;4.28;;;;;;;-144.87;100.00;61487.56;4973577;28;20050;-80
2023/03/15 05:30:42;;;;;;;22.40;3.85;;;;;;;-144.87;100.00;61487.56;4989357;28;20076;-81
2023/03/15 05:33:27;;;;;;;21.02;3.80;;;;;;;-144.87;100.00;61487.56;4989000;28;20101;-81
2023/03/15 05:36:13;;;;;;;17.25;4.22;;;;;;;-144.87;100.00;61487.56;4959054;28;20040;-80
2023/03/15 05:39:02;;;;;;;24.50;3.95;;;;;;;-144.87;100.00;61487.56;4986561;28;20508;-80
2023/03/15 05:41:56;;;;;;;23.02;3.05;;;;;;;-144.87;100.00;61487.56;4963923;28;20535;-84
2023/03/15 05:44:48;;;;;;;22.95;3.22;;;;;;;-144.87;100.00;61487.56;4986289;28;20058;-80
2023/03/15 05:47:50;;;;;;;16.42;2.83;;;;;;;-144.87;100.00;61487.56;4977932;28;20043;-80
2023/03/15 05:50:35;;;;;;;14.43;3.17;;;;;;;-144.87;100.00;61487.56;4968378;28;20038;-80
2023/03/15 05:53:23;;;;;;;12.73;2.13;;;;;;;-144.87;100.00;61487.56;4961143;28;20097;-80
2023/03/15 05:56:01;;;;;;;13.45;2.08;;;;;;;-144.87;100.00;61487.56;4981664;28;20065;-79
2023/03/15 05:58:46;;;;;;;13.80;2.58;;;;;;;-144.87;100.00;61487.56;4990151;28;20045;-81
2023/03/15 06:01:38;;;;;;;12.30;2.45;;;;;;;-144.87;100.00;61487.56;4983983;28;20050;-80
2023/03/15 06:04:13;;;;;;;19.58;3.00;;;;;;;-144.87;100.00;61487.56;5005780;28;20080;-80
2023/03/15 06:06:39;;;;;;;11.63;1.98;;;;;;;-144.87;100.00;61487.56;4986976;28;20042;-80
2023/03/15 06:09:08;;;;;;;22.17;2.28;;;;;;;-144.87;100.00;61487.56;4971801;28;20042;-80
2023/03/15 06:11:38;;;;;;;8.15;2.30;;;;;;;-144.87;100.00;61487.56;4989623;28;20037;-80
2023/03/15 06:14:05;;;;;;;18.00;2.00;;;;;;;-144.87;100.00;61487.56;4965815;28;20034;-80
2023/03/15 06:16:40;;;;;;;15.10;1.98;;;;;;;-144.87;100.00;61487.56;4973030;28;20392;-79
2023/03/15 06:19:07;;;;;;;17.73;1.90;;;;;;;-144.87;100.00;61487.56;4970734;28;20524;-80
2023/03/15 06:21:34;;;;;;;15.40;2.65;;;;;;;-144.87;100.00;61487.56;4955733;28;20045;-80
2023/03/15 06:24:03;;;;;;;19.67;3.60;;;;;;;-144.87;100.00;61487.56;4940181;28;20122;-80
2023/03/15 06:26:29;;;;;;;9.93;2.13;;;;;;;-144.87;100.00;61487.56;4973816;28;20046;-80
2023/03/15 06:29:01;;;;;;;17.63;2.60;;;;;;;-144.87;100.00;61487.56;4959228;28;20030;-80
2023/03/15 06:31:27;;;;;;;20.38;2.90;;;;;;;-144.87;100.00;61487.56;4960418;28;20046;-79
2023/03/15 06:34:02;;;;;;;12.57;2.22;;;;;;;-144.87;100.00;61487.56;4940911;28;20038;-79
2023/03/15 06:36:30;;;;;;;11.43;2.55;;;;;;;-144.87;100.00;61487.56;4966923;28;20114;-80
2023/03/15 06:38:56;;;;;;;13.77;2.90;;;;;;;-144.87;100.00;61487.56;4954432;28;20038;-80
2023/03/15 06:41:23;;;;;;;10.68;3.05;;;;;;;-144.87;100.00;61487.56;4977333;28;20133;-81
2023/03/15 06:43:55;;;;;;;10.27;2.65;;;;;;;-144.87;100.00;61487.56;4956205;28;20053;-80
2023/03/15 06:46:21;;;;;;;11.30;2.90;;;;;;;-144.87;100.00;61487.56;4988706;28;20749;-80
2023/03/15 06:48:48;;;;;;;10.02;2.65;;;;;;;-144.87;100.00;61487.56;4989268;28;20039;-80
2023/03/15 06:51:15;;;;;;;7.22;2.05;;;;;;;-144.87;100.00;61487.56;4947546;28;20042;-80
2023/03/15 06:53:41;;;;;;;8.80;2.35;;;;;;;-144.87;100.00;61487.56;4986207;28;20033;-81
2023/03/15 06:56:08;;;;;;;11.85;2.22;;;;;;;-144.87;100.00;61487.56;4965642;28;20065;-80
2023/03/15 06:58:34;;;;;;;4.97;1.30;;;;;;;-144.87;100.00;61487.56;4951844;28;20049;-79
2023/03/15 07:01:00;;;;;;;9.00;1.60;;;;;;;-144.87;100.00;61487.56;4971172;28;20038;-80
2023/03/15 07:03:27;;;;;;;9.55;2.20;;;;;;;-144.87;100.00;61487.56;4985219;28;20182;-81
2023/03/15 07:05:53;;;;;;;6.70;2.08;;;;;;;-144.87;100.00;61487.56;4973513;28;20056;-80
2023/03/15 07:08:24;;;;;;;6.75;1.45;;;;;;;-144.87;100.00;61487.56;4968507;28;20221;-79
2023/03/15 07:10:50;;;;;;;7.97;1.85;;;;;;;-144.87;100.00;61487.56;4988597;28;20120;-81
2023/03/15 07:13:18;;;;;;;9.85;4.18;;;;;;;-144.87;100.00;61487.56;4970776;28;20034;-81
2023/03/15 07:15:44;;;;;;;4.10;1.60;;;;;;;-144.87;100.00;61487.56;4987657;28;20041;-80
2023/03/15 07:18:10;;;;;;;5.40;1.30;;;;;;;-144.87;100.00;61487.56;4989002;28;20030;-79
2023/03/15 07:20:37;;;;;;;7.68;1.60;;;;;;;-144.87;100.00;61487.56;4950269;28;20058;-80
2023/03/15 07:23:03;;;;;;;4.03;1.27;;;;;;;-144.87;100.00;61487.56;4988584;28;20042;-81
2023/03/15 07:25:29;;;;;;;6.20;1.60;;;;;;;-144.87;100.00;61487.56;4970572;28;20042;-81
2023/03/15 07:27:56;;;;;;;4.57;1.08;;;;;;;-144.87;100.00;61487.56;4970439;28;20034;-81
2023/03/15 07:30:22;;;;;;;5.18;1.48;;;;;;;-144.87;100.00;61487.56;4991740;28;20030;-80
2023/03/15 07:32:49;;;;;;;6.07;1.60;;;;;;;-144.87;100.00;61487.56;4961407;28;20026;-80
2023/03/15 07:35:16;;;;;;;4.70;1.15;;;;;;;-144.87;100.00;61487.56;4982100;28;20411;-80
2023/03/15 07:37:43;;;;;;;3.30;1.10;;;;;;;-144.87;100.00;61487.56;4985900;28;20077;-81
2023/03/15 07:40:11;;;;;;;11.32;1.40;;;;;;;-144.87;100.00;61487.56;4970864;28;20038;-82
2023/03/15 07:42:38;;;;;;;5.82;1.45;;;;;;;-144.87;100.00;61487.56;4973068;28;20057;-81
2023/03/15 07:45:08;;;;;;;6.22;1.25;;;;;;;-144.87;100.00;61487.56;4958561;28;20369;-81
2023/03/15 07:47:35;;;;;;;7.45;1.65;;;;;;;-144.87;100.00;61487.56;4972315;28;20061;-81
2023/03/15 07:50:02;;;;;;;5.25;1.70;;;;;;;-144.87;100.00;61487.56;4991579;28;20491;-81
2023/03/15 07:52:29;;;;;;;4.30;1.25;;;;;;;-144.87;100.00;61487.56;4991246;28;20425;-81
2023/03/15 07:54:55;;;;;;;9.45;1.45;;;;;;;-144.87;100.00;61487.56;4991723;28;20040;-81
2023/03/15 07:57:22;;;;;;;9.13;1.55;;;;;;;-144.87;100.00;61487.56;4988229;28;20045;-81
2023/03/15 08:00:10;;;;;;;8.00;1.98;;;;;;;-144.87;100.00;61487.56;4990662;28;20184;-82
2023/03/15 08:02:40;;;;;;;7.13;1.63;;;;;;;-144.87;100.00;61487.56;4987800;28;20141;-81
2023/03/15 08:05:07;;;;;;;8.77;1.60;;;;;;;-144.87;100.00;61487.56;4990924;28;20165;-81
2023/03/15 08:07:34;;;;;;;8.88;1.80;;;;;;;-144.87;100.00;61487.56;4957934;28;20137;-81
2023/03/15 08:10:01;;;;;;;11.65;1.95;;;;;;;-144.87;100.00;61487.56;4972384;28;20518;-83
2023/03/15 08:12:29;;;;;;;7.30;1.90;;;;;;;-144.87;100.00;61487.56;4942344;28;20456;-80
2023/03/15 08:14:55;;;;;;;9.50;1.48;;;;;;;-144.87;100.00;61487.56;4991608;28;20479;-82
2023/03/15 08:17:21;;;;;;;8.40;2.05;;;;;;;-144.87;100.00;61487.56;4972449;28;20073;-82
2023/03/15 08:19:48;;;;;;;7.57;1.55;;;;;;;-144.87;100.00;61487.56;4974400;28;20050;-81
2023/03/15 08:22:15;;;;;;;8.82;2.58;;;;;;;-144.87;100.00;61487.56;4974324;28;20487;-82
2023/03/15 08:24:41;;;;;;;6.03;1.63;;;;;;;-144.87;100.00;61487.56;4987019;28;20023;-82
2023/03/15 08:27:08;;;;;;;8.05;1.83;;;;;;;-144.87;100.00;61487.56;4987358;28;20026;-82
2023/03/15 08:29:35;;;;;;;6.95;1.35;;;;;;;-144.87;100.00;61487.56;4988091;28;20084;-82
2023/03/15 08:32:02;;;;;;;9.10;1.50;;;;;;;-144.87;100.00;61487.56;4970140;28;20041;-84
2023/03/15 08:34:28;;;;;;;8.10;2.05;;;;;;;-144.87;100.00;61487.56;4975129;28;20035;-82
2023/03/15 08:36:54;;;;;;;3.63;1.60;;;;;;;-144.87;100.00;61487.56;5006282;28;20094;-83
2023/03/15 08:39:22;;;;;;;6.47;1.60;;;;;;;-144.87;100.00;61487.56;4980472;28;20031;-81
2023/03/15 08:41:50;;;;;;;8.77;2.38;;;;;;;-144.87;100.00;61487.56;4969159;28;20080;-82
2023/03/15 08:44:16;;;;;;;9.02;1.75;;;;;;;-144.87;100.00;61487.56;4987424;28;20102;-80
2023/03/15 08:46:43;;;;;;;8.15;1.73;;;;;;;-144.87;100.00;61487.56;4973789;28;20044;-82
2023/03/15 08:49:09;;;;;;;6.55;1.88;;;;;;;-144.87;100.00;61487.56;4968289;28;20031;-83
2023/03/15 08:51:35;;;;;;;8.02;1.50;;;;;;;-144.87;100.00;61487.56;4969374;28;20038;-82
2023/03/15 08:54:02;;;;;;;8.38;1.90;;;;;;;-144.87;100.00;61487.56;4977950;28;20042;-81
2023/03/15 08:56:31;;;;;;;6.20;1.70;;;;;;;-144.87;100.00;61487.56;4974730;28;20034;-82
2023/03/15 08:58:58;;;;;;;6.57;1.42;;;;;;;-144.87;100.00;61487.56;4957279;28;20046;-83
2023/03/15 09:01:43;;;;;;;9.00;1.50;;;;;;;-144.87;100.00;61487.56;4990820;28;20034;-82
2023/03/15 09:04:10;;;;;;;9.05;2.08;;;;;;;-144.87;100.00;61487.56;4973768;28;20041;-82
2023/03/15 09:06:37;;;;;;;8.80;1.40;;;;;;;-144.87;100.00;61487.56;4957476;28;20039;-82
2023/03/15 09:09:04;;;;;;;5.95;1.27;;;;;;;-144.87;100.00;61487.56;4976674;28;20054;-83
2023/03/15 09:11:31;;;;;;;9.75;2.67;;;;;;;-144.87;100.00;61487.56;4973310;28;20163;-82
2023/03/15 09:13:57;;;;;;;11.68;1.58;;;;;;;-144.87;100.00;61487.56;4990563;28;20133;-83
2023/03/15 09:16:23;;;;;;;7.50;2.08;;;;;;;-144.87;100.00;61487.56;4989658;28;20134;-84
2023/03/15 09:18:50;;;;;;;6.57;1.50;;;;;;;-144.87;100.00;61487.56;4973964;28;20042;-82
2023/03/15 09:21:16;;;;;;;4.82;1.50;;;;;;;-144.87;100.00;61487.56;4958389;28;20052;-84
2023/03/15 09:23:42;;;;;;;8.60;1.33;;;;;;;-144.87;100.00;61487.56;4977294;28;20046;-81
2023/03/15 09:26:08;;;;;;;4.18;1.10;;;;;;;-144.87;100.00;61487.56;4992838;28;20072;-82
2023/03/15 09:28:36;;;;;;;4.35;1.42;;;;;;;-144.87;100.00;61487.56;4993883;28;20046;-81
2023/03/15 09:31:06;;;;;;;5.03;1.17;;;;;;;-144.87;100.00;61487.56;4975830;28;20404;-81
2023/03/15 09:33:32;;;;;;;7.68;1.45;;;;;;;-144.87;100.00;61487.56;4974657;28;20047;-82
2023/03/15 09:35:58;;;;;;;7.63;1.25;;;;;;;-144.87;100.00;61487.56;4973053;28;20042;-82
2023/03/15 09:38:25;;;;;;;3.85;0.90;;;;;;;-144.87;100.00;61487.56;4976468;28;20097;-81
2023/03/15 09:40:59;;;;;;;5.40;1.67;;;;;;;-144.87;100.00;61487.56;4960325;28;20077;-82
2023/03/15 09:43:42;;;;;;;7.80;1.40;;;;;;;-144.87;100.00;61487.56;4993917;28;20034;-81
2023/03/15 09:46:31;;;;;;;5.55;1.00;;;;;;;-144.87;100.00;61487.56;4993945;28;20129;-80
2023/03/15 09:49:12;;;;;;;6.35;1.40;;;;;;;-144.87;100.00;61487.56;4974655;28;20038;-80
2023/03/15 09:51:49;;;;;;;6.65;1.35;;;;;;;-144.87;100.00;61487.56;4959969;28;20105;-83
2023/03/15 09:54:39;;;;;;;6.03;1.30;;;;;;;-144.87;100.00;61487.56;4976495;28;20198;-82
2023/03/15 09:57:17;;;;;;;6.07;1.98;;;;;;;-144.87;100.00;61487.56;4975856;28;20128;-82
2023/03/15 09:59:47;;;;;;;6.50;1.15;;;;;;;-144.87;100.00;61487.56;4976072;28;20034;-81
2023/03/15 10:02:25;;;;;;;4.63;1.63;;;;;;;-144.87;100.00;61487.56;4975970;28;20057;-83
2023/03/15 10:05:00;;;;;;;6.28;1.30;;;;;;;-144.87;100.00;61487.56;4960818;28;20038;-81
2023/03/15 10:07:26;;;;;;;7.05;1.42;;;;;;;-144.87;100.00;61487.56;4975625;28;20518;-81
2023/03/15 10:09:53;;;;;;;9.38;1.33;;;;;;;-144.87;100.00;61487.56;4970522;28;20113;-80
2023/03/15 10:12:42;;;;;;;4.13;1.13;;;;;;;-144.87;100.00;61487.56;4960164;28;20113;-81
2023/03/15 10:15:21;;;;;;;5.68;1.40;;;;;;;-144.87;100.00;61487.56;4976585;28;20034;-82
2023/03/15 10:17:48;;;;;;;4.95;1.30;;;;;;;-144.87;100.00;61487.56;4993034;28;20034;-81
2023/03/15 10:20:26;;;;;;;4.80;1.23;;;;;;;-144.87;100.00;61487.56;4992085;28;20078;-82
2023/03/15 10:23:08;;;;;;;10.70;1.60;;;;;;;-144.87;100.00;61487.56;4975159;28;20495;-81
2023/03/15 10:25:35;;;;;;;9.57;1.60;;;;;;;-144.87;100.00;61487.56;4993703;28;20056;-81
2023/03/15 10:28:18;;;;;;;8.50;1.50;;;;;;;-144.87;100.00;61487.56;4993486;28;20026;-82
2023/03/15 10:30:49;;;;;;;6.95;2.08;;;;;;;-144.87;100.00;61487.56;4994712;28;20057;-82
2023/03/15 10:33:31;;;;;;;6.85;1.85;;;;;;;-144.87;100.00;61487.56;4995013;28;20037;-81
2023/03/15 10:35:59;;;;;;;6.97;1.60;;;;;;;-144.87;100.00;61487.56;4995148;28;20088;-83
2023/03/15 10:38:26;;;;;;;8.48;2.08;;;;;;;-144.87;100.00;61487.56;4976929;28;20097;-83
2023/03/15 10:40:55;;;;;;;11.48;1.70;;;;;;;-144.87;100.00;61487.56;4994453;28;20096;-82
2023/03/15 10:43:36;;;;;;;7.75;1.40;;;;;;;-144.87;100.00;61487.56;4955909;28;20039;-83
2023/03/15 10:46:07;;;;;;;4.82;1.63;;;;;;;-144.87;100.00;61487.56;4957340;28;20045;-86
2023/03/15 10:48:36;;;;;;;6.45;1.75;;;;;;;-144.87;100.00;61487.56;4973235;28;20073;-84
2023/03/15 10:51:12;;;;;;;7.43;1.52;;;;;;;-144.87;100.00;61487.56;4956527;28;20043;-83
2023/03/15 10:54:05;;;;;;;9.02;1.85;;;;;;;-144.87;100.00;61487.56;4962477;28;20069;-82
2023/03/15 10:56:43;;;;;;;12.95;2.20;;;;;;;-144.87;100.00;61487.56;4992720;28;20038;-83
2023/03/15 10:59:26;;;;;;;5.53;1.40;;;;;;;-144.87;100.00;61487.56;4975064;28;20054;-81
2023/03/15 11:02:21;;;;;;;8.32;2.20;;;;;;;-144.87;100.00;61487.56;4991052;28;20042;-83
2023/03/15 11:04:49;;;;;;;7.70;1.33;;;;;;;-144.87;100.00;61487.56;4990193;28;20050;-82
2023/03/15 11:07:17;;;;;;;6.80;1.60;;;;;;;-144.87;100.00;61487.56;4992683;28;20448;-84
2023/03/15 11:09:58;;;;;;;9.90;2.75;;;;;;;-144.87;100.00;61487.56;4992283;28;20042;-84
2023/03/15 11:12:29;;;;;;;10.43;2.58;;;;;;;-144.87;100.00;61487.56;4992731;28;20046;-82
2023/03/15 11:15:08;;;;;;;9.90;1.60;;;;;;;-144.87;100.00;61487.56;4958956;28;20030;-82
2023/03/15 11:17:42;;;;;;;5.72;1.40;;;;;;;-144.87;100.00;61487.56;4974585;28;20037;-83
2023/03/15 11:20:36;;;;;;;6.05;1.25;;;;;;;-144.87;100.00;61487.56;4974211;28;20061;-82
2023/03/15 11:23:14;;;;;;;8.95;2.47;;;;;;;-144.87;100.00;61487.56;4958109;28;20034;-82
2023/03/15 11:25:40;;;;;;;11.15;1.65;;;;;;;-144.87;100.00;61487.56;4959179;28;20030;-83